Time;durP1;ratioP1;P1;durP2;ratioP2;P2;SDS_P1;SDS_P2;PMS_P1;PMS_P2;Temp;Humidity;BMP_temperature;BMP_pressure;BME280_temperature;BME280_humidity;BME280_pressure;Samples;Min_cycle;Max_cycle;Signal;HPM_P1;HPM_P2
2021/10/07 00:01:03;;;;;;;18.38;8.32;;;;;;;15.82;64.46;102232.66;4945744;28;123990;-76
2021/10/07 00:03:51;;;;;;;16.73;8.52;;;;;;;15.80;64.45;102229.19;4966625;28;124433;-77
2021/10/07 00:06:19;;;;;;;17.83;8.15;;;;;;;15.79;64.34;102235.47;4965608;28;118458;-77
2021/10/07 00:08:46;;;;;;;15.38;7.53;;;;;;;15.77;64.18;102241.75;4965410;28;118873;-76
2021/10/07 00:11:15;;;;;;;14.13;7.90;;;;;;;15.76;64.00;102244.47;4961025;28;123911;-76
2021/10/07 00:13:43;;;;;;;15.90;7.63;;;;;;;15.72;64.15;102243.72;4946690;28;123749;-76
2021/10/07 00:16:10;;;;;;;14.75;7.80;;;;;;;15.70;64.06;102245.59;4963246;28;119076;-77
2021/10/07 00:18:41;;;;;;;14.23;7.30;;;;;;;15.68;64.00;102252.81;4947837;28;118097;-77
2021/10/07 00:21:10;;;;;;;17.58;8.20;;;;;;;15.64;63.82;102256.56;4959319;28;124834;-77
2021/10/07 00:23:56;;;;;;;15.48;8.05;;;;;;;15.61;63.90;102251.34;4968236;28;123814;-77
2021/10/07 00:26:23;;;;;;;18.60;8.75;;;;;;;15.58;64.00;102254.16;4960031;28;120023;-76
2021/10/07 00:28:52;;;;;;;14.30;8.02;;;;;;;15.54;63.93;102255.22;4968854;28;118898;-76
2021/10/07 00:31:22;;;;;;;16.80;8.48;;;;;;;15.51;64.10;102266.03;4961818;28;124074;-77
2021/10/07 00:34:08;;;;;;;15.38;8.30;;;;;;;15.47;64.00;102259.94;4961224;28;123712;-77
2021/10/07 00:39:21;;;;;;;15.43;7.40;;;;;;;15.40;63.99;102265.63;4958749;28;119093;-76
2021/10/07 00:41:48;;;;;;;13.68;7.63;;;;;;;15.37;63.85;102272.84;4965731;28;125116;-77
2021/10/07 00:44:15;;;;;;;14.10;7.90;;;;;;;15.33;63.92;102263.22;4966095;28;123782;-77
2021/10/07 00:46:58;;;;;;;15.52;8.25;;;;;;;15.31;63.77;102269.53;4948480;28;119701;-76
2021/10/07 00:49:27;;;;;;;15.60;8.05;;;;;;;15.27;63.78;102268.78;4963809;28;119755;-76
2021/10/07 00:51:56;;;;;;;14.68;8.40;;;;;;;15.22;63.76;102270.81;4942303;28;123837;-76
2021/10/07 00:54:25;;;;;;;14.13;8.15;;;;;;;15.19;63.86;102270.94;4958250;28;124391;-76
2021/10/07 00:56:55;;;;;;;16.45;7.90;;;;;;;15.17;63.82;102267.47;4948491;28;120090;-76
2021/10/07 00:59:23;;;;;;;14.25;7.20;;;;;;;15.14;64.04;102272.91;4956792;28;119598;-76
2021/10/07 01:01:51;;;;;;;14.57;7.38;;;;;;;15.13;63.97;102276.53;4938823;28;124837;-77
2021/10/07 01:04:18;;;;;;;13.93;7.70;;;;;;;15.12;64.07;102274.78;4964018;28;123717;-77
2021/10/07 01:06:46;;;;;;;13.30;8.00;;;;;;;15.12;64.14;102277.44;4972641;28;118978;-76
2021/10/07 01:09:17;;;;;;;18.35;9.20;;;;;;;15.13;64.17;102279.19;4965762;28;119470;-76
2021/10/07 01:11:44;;;;;;;17.13;8.70;;;;;;;15.13;64.27;102281.88;4961322;28;123917;-76
2021/10/07 01:14:11;;;;;;;20.13;9.15;;;;;;;15.15;64.43;102280.00;4967151;28;123412;-76
2021/10/07 01:16:38;;;;;;;19.30;9.63;;;;;;;15.17;64.34;102283.47;4967328;28;118287;-74
2021/10/07 01:19:06;;;;;;;18.95;9.38;;;;;;;15.20;64.38;102278.00;4969062;28;118864;-76
2021/10/07 01:21:33;;;;;;;21.77;9.95;;;;;;;15.21;64.41;102287.75;4968556;28;123989;-76
2021/10/07 01:24:01;;;;;;;26.05;10.43;;;;;;;15.23;64.37;102285.88;4967838;28;123814;-75
2021/10/07 01:26:28;;;;;;;34.90;10.00;;;;;;;15.25;64.43;102281.34;4968397;28;119667;-75
2021/10/07 01:28:55;;;;;;;22.25;9.95;;;;;;;15.25;64.53;102284.00;4950819;28;118699;-76
2021/10/07 01:31:22;;;;;;;21.90;9.80;;;;;;;15.28;64.55;102283.91;4964650;28;124189;-76
2021/10/07 01:33:49;;;;;;;25.17;10.73;;;;;;;15.29;64.58;102293.63;4965010;28;124054;-76
2021/10/07 01:36:17;;;;;;;26.48;11.00;;;;;;;15.32;64.59;102293.50;4964995;28;120183;-76
2021/10/07 01:38:44;;;;;;;23.33;11.57;;;;;;;15.33;64.60;102297.94;4969648;28;120670;-76
2021/10/07 01:41:11;;;;;;;32.97;10.70;;;;;;;15.36;64.65;102302.25;4968525;28;124502;-76
2021/10/07 01:43:38;;;;;;;27.98;10.68;;;;;;;15.37;64.76;102301.34;4963709;28;124034;-76
2021/10/07 01:46:06;;;;;;;28.48;11.05;;;;;;;15.40;64.73;102303.00;4950124;28;119446;-76
2021/10/07 01:48:34;;;;;;;27.27;10.90;;;;;;;15.40;64.70;102308.34;4969222;28;119064;-76
2021/10/07 01:51:01;;;;;;;38.33;10.18;;;;;;;15.43;64.68;102305.56;4963653;28;124129;-78
2021/10/07 01:53:28;;;;;;;28.23;10.57;;;;;;;15.44;64.73;102310.81;4962920;28;123283;-76
2021/10/07 01:55:55;;;;;;;25.08;11.13;;;;;;;15.45;64.64;102311.69;4963415;28;119836;-76
2021/10/07 01:58:25;;;;;;;29.63;10.73;;;;;;;15.46;64.65;102308.06;4963319;28;119005;-77
2021/10/07 02:00:52;;;;;;;26.20;10.15;;;;;;;15.46;64.68;102316.09;4950371;28;124605;-76
2021/10/07 02:03:20;;;;;;;20.83;10.15;;;;;;;15.48;64.74;102320.44;4969329;28;123780;-76
2021/10/07 02:05:47;;;;;;;19.63;9.95;;;;;;;15.49;64.73;102313.28;4967650;28;119556;-76
2021/10/07 02:08:14;;;;;;;32.13;9.70;;;;;;;15.51;64.87;102319.44;4955654;28;118976;-77
2021/10/07 02:10:41;;;;;;;26.85;10.02;;;;;;;15.51;64.91;102319.44;4959462;28;124473;-76
2021/10/07 02:13:09;;;;;;;22.48;10.85;;;;;;;15.50;64.79;102317.69;4964675;28;123642;-76
2021/10/07 02:15:36;;;;;;;22.63;10.55;;;;;;;15.51;64.69;102319.44;4963658;28;119103;-77
2021/10/07 02:18:03;;;;;;;21.38;10.65;;;;;;;15.52;64.76;102327.38;4962551;28;118857;-76
2021/10/07 02:20:30;;;;;;;19.52;10.00;;;;;;;15.54;64.85;102324.66;4962536;28;124264;-76
2021/10/07 02:22:57;;;;;;;26.25;10.35;;;;;;;15.55;64.82;102326.38;4958980;28;124390;-77
2021/10/07 02:25:25;;;;;;;21.95;9.65;;;;;;;15.54;64.79;102327.34;4970186;28;120051;-77
2021/10/07 02:27:52;;;;;;;23.67;9.95;;;;;;;15.54;64.77;102327.34;4965378;28;120193;-77
2021/10/07 02:30:19;;;;;;;21.15;10.15;;;;;;;15.56;64.89;102330.81;4962259;28;123573;-76
2021/10/07 02:32:46;;;;;;;25.45;9.45;;;;;;;15.57;64.82;102337.88;4960745;28;123870;-76
2021/10/07 02:35:15;;;;;;;27.30;9.40;;;;;;;15.57;64.77;102343.19;4957770;28;119531;-76
2021/10/07 02:37:44;;;;;;;25.85;9.45;;;;;;;15.56;64.89;102345.00;4959778;28;118888;-75
2021/10/07 02:40:13;;;;;;;21.50;9.90;;;;;;;15.57;64.93;102345.88;4962303;28;124382;-76
2021/10/07 02:42:41;;;;;;;37.08;9.32;;;;;;;15.57;64.98;102348.53;4962740;28;123877;-77
2021/10/07 02:45:10;;;;;;;21.77;9.18;;;;;;;15.56;64.93;102350.34;4956947;28;119653;-77
2021/10/07 02:47:38;;;;;;;30.67;10.00;;;;;;;15.57;64.87;102346.72;4960716;28;118782;-76
2021/10/07 02:50:07;;;;;;;19.33;9.05;;;;;;;15.58;64.92;102347.63;4959494;28;123259;-77
2021/10/07 02:52:34;;;;;;;25.85;9.27;;;;;;;15.60;64.93;102340.41;4961973;28;123678;-77
2021/10/07 02:55:03;;;;;;;30.02;9.68;;;;;;;15.60;64.98;102351.09;4959672;28;119167;-76
2021/10/07 02:57:30;;;;;;;36.45;9.32;;;;;;;15.60;64.78;102351.09;4962968;28;119793;-76
2021/10/07 02:59:58;;;;;;;23.77;9.40;;;;;;;15.60;64.91;102355.59;4960849;28;124054;-77
2021/10/07 03:02:25;;;;;;;23.90;9.55;;;;;;;15.58;64.87;102358.31;4961683;28;123371;-77
2021/10/07 03:04:52;;;;;;;24.60;9.38;;;;;;;15.59;64.94;102357.34;4964739;28;119373;-77
2021/10/07 03:07:21;;;;;;;22.48;9.52;;;;;;;15.60;64.94;102361.78;4965279;28;119054;-77
2021/10/07 03:09:48;;;;;;;19.98;9.75;;;;;;;15.59;64.87;102365.38;4962130;28;124228;-77
2021/10/07 03:12:16;;;;;;;31.33;9.15;;;;;;;15.59;64.91;102376.06;4951514;28;123726;-78
2021/10/07 03:14:45;;;;;;;23.90;9.18;;;;;;;15.58;64.89;102369.00;4963847;28;120621;-76
2021/10/07 03:17:12;;;;;;;28.60;9.75;;;;;;;15.57;64.78;102365.44;4963638;28;119699;-76
2021/10/07 03:19:40;;;;;;;20.55;9.25;;;;;;;15.55;64.76;102374.44;4966393;28;123842;-76
2021/10/07 03:22:08;;;;;;;29.40;9.10;;;;;;;15.55;64.93;102379.78;4963417;28;124007;-77
2021/10/07 03:24:36;;;;;;;20.42;9.10;;;;;;;15.54;64.92;102378.94;4960624;28;119682;-76
2021/10/07 03:27:03;;;;;;;17.38;9.07;;;;;;;15.54;65.00;102388.75;4967262;28;119153;-77
2021/10/07 03:29:31;;;;;;;22.67;9.18;;;;;;;15.55;65.02;102387.81;4938399;28;124709;-77
2021/10/07 03:31:58;;;;;;;21.27;9.27;;;;;;;15.55;64.91;102390.47;4947638;28;122960;-76
2021/10/07 03:34:25;;;;;;;20.92;8.95;;;;;;;15.54;64.93;102394.09;4964368;28;119364;-76
2021/10/07 03:36:53;;;;;;;22.75;8.82;;;;;;;15.53;64.91;102393.19;4947455;28;119053;-76
2021/10/07 03:39:20;;;;;;;24.80;9.20;;;;;;;15.52;65.06;102390.59;4962651;28;123969;-78
2021/10/07 03:41:47;;;;;;;25.55;9.38;;;;;;;15.52;64.86;102391.47;4967756;28;124244;-77
2021/10/07 03:44:14;;;;;;;23.38;10.00;;;;;;;15.52;64.92;102406.59;4963324;28;119675;-76
2021/10/07 03:46:42;;;;;;;18.58;9.88;;;;;;;15.52;65.00;102395.94;4964551;28;121037;-76
2021/10/07 03:49:10;;;;;;;20.95;9.40;;;;;;;15.51;64.93;102403.06;4956040;28;124132;-77
2021/10/07 03:51:37;;;;;;;33.90;9.80;;;;;;;15.52;65.05;102406.59;4962014;28;123955;-77
2021/10/07 03:54:04;;;;;;;20.20;9.75;;;;;;;15.51;65.07;102404.88;4961692;28;119880;-77
2021/10/07 03:56:32;;;;;;;20.70;9.77;;;;;;;15.51;65.30;102410.22;4965913;28;118811;-76
2021/10/07 03:58:59;;;;;;;26.73;10.48;;;;;;;15.52;65.23;102411.94;4958560;28;123672;-77
2021/10/07 04:01:26;;;;;;;24.23;10.32;;;;;;;15.53;65.04;102419.03;4964483;28;123890;-77
2021/10/07 04:03:54;;;;;;;25.15;10.20;;;;;;;15.54;65.08;102415.47;4964476;28;120556;-76
2021/10/07 04:06:21;;;;;;;22.65;9.90;;;;;;;15.55;65.02;102427.84;4965133;28;120102;-76
2021/10/07 04:08:48;;;;;;;23.30;10.07;;;;;;;15.55;65.02;102433.19;4964297;28;124191;-76
2021/10/07 04:11:16;;;;;;;20.80;9.77;;;;;;;15.56;64.95;102429.63;4964156;28;124059;-76
2021/10/07 04:13:43;;;;;;;26.63;10.63;;;;;;;15.57;65.12;102431.34;4963951;28;119950;-76
2021/10/07 04:16:10;;;;;;;26.85;10.25;;;;;;;15.57;65.09;102436.69;4965069;28;119905;-76
2021/10/07 04:18:37;;;;;;;34.70;10.60;;;;;;;15.58;65.08;102438.44;4959496;28;124374;-76
2021/10/07 04:21:05;;;;;;;25.00;10.80;;;;;;;15.59;65.13;102434.81;4951111;28;122969;-77
2021/10/07 04:23:32;;;;;;;24.50;7.05;;;;;;;15.59;65.03;102434.81;4961571;28;119188;-76
2021/10/07 04:25:59;;;;;;;29.95;8.40;;;;;;;15.59;64.98;102440.16;4964248;28;118095;-75
2021/10/07 04:28:26;;;;;;;25.55;10.55;;;;;;;15.57;65.07;102436.69;4965279;28;124206;-76
2021/10/07 04:30:53;;;;;;;64.22;9.70;;;;;;;15.55;65.03;102438.53;4961468;28;123911;-75
2021/10/07 04:33:20;;;;;;;26.63;8.93;;;;;;;15.54;65.07;102447.50;4967341;28;119412;-75
2021/10/07 04:35:48;;;;;;;20.08;7.93;;;;;;;15.53;65.13;102451.09;4965344;28;119093;-76
2021/10/07 04:38:15;;;;;;;17.90;7.80;;;;;;;15.52;65.10;102454.69;4943574;28;124442;-75
2021/10/07 04:40:42;;;;;;;21.70;8.15;;;;;;;15.52;65.09;102452.00;4969334;28;123693;-76
2021/10/07 04:43:09;;;;;;;17.58;7.13;;;;;;;15.51;65.15;102459.16;4953939;28;118208;-76
2021/10/07 04:45:36;;;;;;;27.10;7.88;;;;;;;15.50;65.08;102457.44;4968314;28;118685;-76
2021/10/07 04:48:03;;;;;;;27.17;7.22;;;;;;;15.48;65.45;102459.31;4966024;28;124300;-77
2021/10/07 04:50:31;;;;;;;34.25;7.35;;;;;;;15.46;65.41;102461.13;4965209;28;123609;-76
2021/10/07 04:52:58;;;;;;;27.38;7.30;;;;;;;15.46;65.18;102468.28;4966202;28;120132;-77
2021/10/07 04:55:25;;;;;;;17.73;7.43;;;;;;;15.46;65.03;102465.59;4964581;28;119943;-75
2021/10/07 04:57:53;;;;;;;16.10;7.65;;;;;;;15.44;65.15;102467.47;4966018;28;124019;-77
2021/10/07 05:00:20;;;;;;;20.27;7.50;;;;;;;15.41;65.17;102467.59;4967532;28;123966;-78
2021/10/07 05:02:47;;;;;;;43.10;8.30;;;;;;;15.41;65.11;102470.25;4966629;28;120109;-76
2021/10/07 05:05:14;;;;;;;30.05;7.70;;;;;;;15.40;65.27;102465.88;4964918;28;119024;-76
2021/10/07 05:07:43;;;;;;;21.90;7.70;;;;;;;15.36;65.29;102465.97;4960797;28;124679;-78
2021/10/07 05:10:11;;;;;;;16.45;7.97;;;;;;;15.36;65.20;102476.66;4968691;28;124709;-76
2021/10/07 05:12:40;;;;;;;18.27;7.65;;;;;;;15.36;65.28;102487.31;4967650;28;119657;-76
2021/10/07 05:15:08;;;;;;;16.05;7.57;;;;;;;15.39;65.33;102481.03;4969433;28;119198;-77
2021/10/07 05:17:36;;;;;;;22.25;8.07;;;;;;;15.43;65.41;102484.44;4967164;28;124857;-78
2021/10/07 05:22:36;;;;;;;20.20;8.00;;;;;;;15.48;65.41;102486.00;4906570;28;119024;-69
2021/10/07 05:25:04;;;;;;;15.82;7.80;;;;;;;15.49;65.39;102481.53;4907931;28;118897;-69
2021/10/07 05:27:31;;;;;;;15.13;7.68;;;;;;;15.51;65.36;102487.66;4910016;28;122789;-69
2021/10/07 05:29:58;;;;;;;17.48;7.38;;;;;;;15.51;65.43;102490.34;4911159;28;123835;-68
2021/10/07 05:32:25;;;;;;;18.63;7.95;;;;;;;15.53;65.40;102499.16;4925570;28;119645;-69
2021/10/07 05:34:52;;;;;;;23.15;7.80;;;;;;;15.54;65.45;102498.25;4929640;28;117930;-69
2021/10/07 05:37:19;;;;;;;17.95;8.13;;;;;;;15.56;65.19;102504.38;4926469;28;123388;-70
2021/10/07 05:39:46;;;;;;;40.13;8.45;;;;;;;15.56;65.27;102509.72;4931188;28;123969;-68
2021/10/07 05:42:14;;;;;;;18.30;8.40;;;;;;;15.55;65.26;102513.31;4925242;28;120153;-69
2021/10/07 05:44:41;;;;;;;16.75;8.02;;;;;;;15.55;65.25;102513.31;4927936;28;119289;-69
2021/10/07 05:47:08;;;;;;;61.45;8.52;;;;;;;15.55;65.13;102507.97;4925769;28;124296;-69
2021/10/07 05:49:35;;;;;;;98.53;8.73;;;;;;;15.55;65.16;102516.00;4922947;28;123812;-68
2021/10/07 05:52:03;;;;;;;40.38;9.30;;;;;;;15.53;64.93;102510.69;4925661;28;120145;-68
2021/10/07 05:54:30;;;;;;;34.47;9.23;;;;;;;15.52;65.09;102513.44;4925026;28;119633;-68
2021/10/07 05:56:58;;;;;;;23.90;9.57;;;;;;;15.53;65.29;102525.88;4927955;28;124113;-68
2021/10/07 05:59:25;;;;;;;29.00;9.75;;;;;;;15.53;65.18;102525.88;4910203;28;123355;-69
2021/10/07 06:01:52;;;;;;;99.28;9.10;;;;;;;15.52;65.00;102529.44;4926389;28;118134;-68
2021/10/07 06:04:19;;;;;;;41.08;9.48;;;;;;;15.48;65.04;102527.84;4929559;28;119744;-69
2021/10/07 06:06:46;;;;;;;61.25;9.20;;;;;;;15.44;65.08;102536.91;4911522;28;123161;-69
2021/10/07 06:09:14;;;;;;;60.10;9.35;;;;;;;15.40;65.17;102540.63;4915323;28;123924;-70
2021/10/07 06:11:41;;;;;;;21.45;9.00;;;;;;;15.36;65.29;102540.72;4927061;28;119167;-70
2021/10/07 06:14:08;;;;;;;23.42;8.88;;;;;;;15.35;65.36;102549.69;4922034;28;118721;-70
2021/10/07 06:16:39;;;;;;;30.77;7.85;;;;;;;15.37;65.43;102541.63;4924736;28;123994;-70
2021/10/07 06:19:11;;;;;;;20.95;7.65;;;;;;;15.36;65.35;102556.75;4922737;28;124088;-70
2021/10/07 06:21:38;;;;;;;20.90;7.07;;;;;;;15.36;65.32;102555.88;4923882;28;119997;-70
2021/10/07 06:24:05;;;;;;;28.63;6.47;;;;;;;15.34;65.30;102563.94;4920138;28;118239;-71
2021/10/07 06:26:40;;;;;;;47.20;6.43;;;;;;;15.30;65.26;102562.31;4923766;28;127391;-70
2021/10/07 06:29:08;;;;;;;57.13;6.72;;;;;;;15.27;65.17;102562.44;4924101;28;124290;-70
2021/10/07 06:31:36;;;;;;;22.52;7.15;;;;;;;15.22;65.17;102569.75;4923436;28;120255;-70
2021/10/07 06:34:04;;;;;;;41.88;6.90;;;;;;;15.16;65.26;102568.19;4924457;28;119842;-70
2021/10/07 06:36:31;;;;;;;45.42;7.50;;;;;;;15.13;65.27;102570.09;4922676;28;125480;-69
2021/10/07 06:38:58;;;;;;;25.65;8.52;;;;;;;15.09;65.34;102568.47;4922362;28;123313;-71
2021/10/07 06:41:26;;;;;;;34.22;8.10;;;;;;;15.09;65.68;102568.47;4912378;28;119421;-70
2021/10/07 06:43:53;;;;;;;22.48;8.05;;;;;;;15.11;65.43;102562.13;4920043;28;119138;-70
2021/10/07 06:46:20;;;;;;;30.75;8.85;;;;;;;15.13;65.92;102570.09;4926410;28;124685;-70
2021/10/07 06:48:47;;;;;;;27.35;9.00;;;;;;;15.16;65.47;102577.97;4927413;28;123863;-70
2021/10/07 06:51:14;;;;;;;33.30;8.50;;;;;;;15.14;65.61;102577.16;4925895;28;119861;-70
2021/10/07 06:53:42;;;;;;;20.30;8.57;;;;;;;15.13;65.65;102580.75;4927984;28;117922;-70
2021/10/07 06:56:09;;;;;;;24.10;8.57;;;;;;;15.16;65.57;102596.66;4925149;28;124634;-70
2021/10/07 06:58:36;;;;;;;33.55;8.35;;;;;;;15.18;65.55;102594.78;4918871;28;124696;-70
2021/10/07 07:01:03;;;;;;;24.83;7.88;;;;;;;15.19;65.51;102601.88;4927840;28;119893;-70
2021/10/07 07:03:30;;;;;;;18.40;7.78;;;;;;;15.17;65.46;102609.09;4916871;28;118434;-70
2021/10/07 07:05:57;;;;;;;24.33;7.68;;;;;;;15.15;65.62;102605.59;4916831;28;123173;-70
2021/10/07 07:08:25;;;;;;;19.10;7.97;;;;;;;15.19;65.65;102607.22;4915627;28;122924;-70
2021/10/07 07:10:53;;;;;;;22.23;7.53;;;;;;;15.20;65.51;102603.63;4918463;28;119246;-70
2021/10/07 07:13:20;;;;;;;14.50;7.55;;;;;;;15.22;65.62;102607.13;4912153;28;119497;-70
2021/10/07 07:15:47;;;;;;;16.50;7.63;;;;;;;15.25;65.95;102606.13;4911241;28;124758;-70
2021/10/07 07:18:14;;;;;;;16.05;7.53;;;;;;;15.28;65.59;102606.88;4929456;28;123164;-70
2021/10/07 07:20:42;;;;;;;17.05;7.82;;;;;;;15.30;65.79;102610.38;4905634;28;119559;-70
2021/10/07 07:23:10;;;;;;;17.33;8.23;;;;;;;15.32;65.69;102613.84;4940484;28;119950;-70
2021/10/07 07:25:38;;;;;;;17.70;7.82;;;;;;;15.32;65.53;102624.53;4912635;28;123930;-70
2021/10/07 07:28:05;;;;;;;17.17;8.07;;;;;;;15.31;65.45;102622.81;4929874;28;124676;-71
2021/10/07 07:30:33;;;;;;;15.10;7.57;;;;;;;15.31;65.55;102617.47;4937031;28;119757;-70
2021/10/07 07:33:00;;;;;;;15.88;7.70;;;;;;;15.32;65.78;102624.53;4911120;28;119045;-70
2021/10/07 07:35:32;;;;;;;16.83;7.20;;;;;;;15.32;65.53;102623.66;4915124;28;124735;-70
2021/10/07 07:38:01;;;;;;;16.55;7.82;;;;;;;15.32;65.32;102629.88;4910555;28;124569;-70
2021/10/07 07:40:32;;;;;;;16.85;7.65;;;;;;;15.29;65.57;102624.63;4929019;28;120031;-70
2021/10/07 07:43:23;;;;;;;14.73;7.35;;;;;;;15.30;65.57;102625.53;4920489;28;118894;-70
2021/10/07 07:45:51;;;;;;;15.00;7.85;;;;;;;15.34;65.58;102633.34;4884585;28;124102;-70
2021/10/07 07:48:18;;;;;;;16.38;8.02;;;;;;;15.33;65.54;102642.31;4922554;28;125068;-70
2021/10/07 07:50:45;;;;;;;16.65;8.25;;;;;;;15.35;65.48;102645.78;4911839;28;118911;-70
2021/10/07 07:53:13;;;;;;;15.75;7.63;;;;;;;15.35;65.38;102645.78;4938572;28;119151;-70
2021/10/07 07:55:40;;;;;;;14.55;7.85;;;;;;;15.32;65.31;102645.88;4911477;28;124067;-70
2021/10/07 07:58:07;;;;;;;16.77;7.85;;;;;;;15.33;65.65;102642.31;4910398;28;124600;-70
2021/10/07 08:00:36;;;;;;;15.93;7.38;;;;;;;15.36;65.43;102644.84;4910620;28;119367;-70
2021/10/07 08:03:03;;;;;;;13.68;7.13;;;;;;;15.38;65.43;102653.66;4914870;28;119020;-70
2021/10/07 08:05:31;;;;;;;16.13;7.78;;;;;;;15.41;65.45;102650.03;4929157;28;124484;-70
2021/10/07 08:07:58;;;;;;;15.20;7.75;;;;;;;15.44;65.62;102665.06;4918764;28;123785;-70
2021/10/07 08:10:26;;;;;;;15.32;7.70;;;;;;;15.46;65.41;102660.53;4921876;28;120282;-70
2021/10/07 08:12:53;;;;;;;16.52;7.05;;;;;;;15.48;65.29;102661.34;4922603;28;119720;-70
2021/10/07 08:15:21;;;;;;;13.75;7.07;;;;;;;15.50;65.47;102664.84;4919736;28;123826;-70
2021/10/07 08:17:48;;;;;;;12.88;6.93;;;;;;;15.53;65.21;102664.72;4921795;28;123912;-70
2021/10/07 08:20:16;;;;;;;14.73;7.80;;;;;;;15.52;65.27;102657.63;4916038;28;119340;-70
2021/10/07 08:22:45;;;;;;;17.15;7.65;;;;;;;15.55;65.55;102668.22;4908301;28;119197;-70
2021/10/07 08:25:12;;;;;;;15.90;8.00;;;;;;;15.60;65.54;102676.94;4911442;28;124020;-70
2021/10/07 08:27:40;;;;;;;15.55;7.53;;;;;;;15.64;65.51;102667.88;4911167;28;123881;-70
2021/10/07 08:30:09;;;;;;;13.88;7.13;;;;;;;15.69;65.28;102673.94;4910538;28;119118;-70
2021/10/07 08:32:37;;;;;;;12.10;6.75;;;;;;;15.74;65.35;102679.13;4913541;28;118831;-70
2021/10/07 08:35:06;;;;;;;14.38;7.10;;;;;;;15.79;65.16;102681.63;4911225;28;123954;-70
2021/10/07 08:37:33;;;;;;;14.30;6.95;;;;;;;15.80;64.73;102678.03;4910262;28;123661;-70
2021/10/07 08:40:03;;;;;;;15.85;7.88;;;;;;;15.83;65.06;102677.91;4923189;28;119594;-70
2021/10/07 08:42:31;;;;;;;15.07;7.93;;;;;;;15.86;65.24;102678.69;4927627;28;119942;-70
2021/10/07 08:45:00;;;;;;;15.35;7.28;;;;;;;15.91;65.40;102681.16;4927425;28;124306;-70
2021/10/07 08:47:28;;;;;;;17.08;8.50;;;;;;;15.97;65.01;102686.25;4924541;28;124940;-71
2021/10/07 08:49:56;;;;;;;14.65;7.80;;;;;;;15.97;64.79;102683.59;4927294;28;119449;-70
2021/10/07 08:52:23;;;;;;;13.25;7.40;;;;;;;15.98;64.85;102688.00;4928542;28;118773;-71
2021/10/07 08:54:50;;;;;;;14.45;7.63;;;;;;;15.96;64.71;102679.19;4926676;28;124222;-70
2021/10/07 08:57:18;;;;;;;13.35;7.13;;;;;;;16.00;64.86;102686.16;4923398;28;123585;-70
2021/10/07 08:59:45;;;;;;;11.13;6.43;;;;;;;16.02;64.70;102689.63;4921462;28;119947;-70
2021/10/07 09:02:24;;;;;;;11.70;6.72;;;;;;;16.03;64.69;102695.84;4913842;28;119888;-71
2021/10/07 09:04:55;;;;;;;11.77;6.72;;;;;;;16.05;64.46;102700.22;4921258;28;125262;-72
2021/10/07 09:07:22;;;;;;;14.07;6.97;;;;;;;16.06;64.33;102696.59;4913609;28;123820;-71
2021/10/07 09:09:56;;;;;;;12.30;6.63;;;;;;;16.07;64.58;102703.69;4921195;28;119552;-71
2021/10/07 09:12:23;;;;;;;13.25;7.25;;;;;;;16.12;64.61;102696.38;4909475;28;118467;-70
2021/10/07 09:14:51;;;;;;;12.80;6.57;;;;;;;16.15;64.62;102701.59;4926788;28;125325;-70
2021/10/07 09:17:21;;;;;;;12.38;7.43;;;;;;;16.20;64.35;102697.88;4921176;28;123874;-71
2021/10/07 09:19:49;;;;;;;11.57;6.38;;;;;;;16.20;64.05;102695.19;4933401;28;119355;-71
2021/10/07 09:22:26;;;;;;;12.63;6.80;;;;;;;16.21;64.18;102699.63;4916392;28;118544;-70
2021/10/07 09:24:58;;;;;;;12.45;6.88;;;;;;;16.24;64.24;102704.84;4928746;28;124046;-74
2021/10/07 09:27:26;;;;;;;11.98;7.20;;;;;;;16.29;64.30;102694.84;4930063;28;124911;-71
2021/10/07 09:29:56;;;;;;;11.45;6.47;;;;;;;16.36;64.34;102699.00;4930735;28;119780;-71
2021/10/07 09:32:29;;;;;;;12.35;7.07;;;;;;;16.40;64.17;102705.97;4930454;28;118869;-71
2021/10/07 09:34:59;;;;;;;13.10;7.10;;;;;;;16.44;64.05;102696.88;4920313;28;124829;-71
2021/10/07 09:37:30;;;;;;;12.57;7.55;;;;;;;16.46;63.83;102700.41;4924948;28;123671;-73
2021/10/07 09:40:03;;;;;;;12.55;7.13;;;;;;;16.43;63.59;102703.19;4918480;28;119299;-71
2021/10/07 09:42:34;;;;;;;13.23;7.90;;;;;;;16.41;63.59;102715.75;4917345;28;119298;-72
2021/10/07 09:45:17;;;;;;;16.08;7.80;;;;;;;16.42;63.88;102709.47;4936201;28;123719;-72
2021/10/07 09:47:48;;;;;;;14.18;8.32;;;;;;;16.45;63.67;102709.34;4925611;28;124609;-71
2021/10/07 09:50:20;;;;;;;14.27;7.85;;;;;;;16.48;63.92;102709.22;4924232;28;120040;-72
2021/10/07 09:52:52;;;;;;;12.98;7.88;;;;;;;16.53;63.76;102715.25;4918318;28;119920;-71
2021/10/07 09:55:24;;;;;;;15.07;8.55;;;;;;;16.60;63.98;102712.34;4929951;28;123574;-72
2021/10/07 09:57:52;;;;;;;13.40;7.88;;;;;;;16.69;63.81;102711.97;4911826;28;124725;-72
2021/10/07 10:00:22;;;;;;;13.98;7.07;;;;;;;16.78;63.72;102722.28;4914499;28;119235;-72
2021/10/07 10:02:49;;;;;;;12.80;7.38;;;;;;;16.81;63.26;102721.28;4916495;28;118760;-72
2021/10/07 10:05:16;;;;;;;13.23;7.55;;;;;;;16.81;63.21;102716.81;4929977;28;124011;-72
2021/10/07 10:07:44;;;;;;;14.55;8.30;;;;;;;16.81;63.01;102722.16;4929373;28;123856;-72
2021/10/07 10:10:13;;;;;;;13.45;7.32;;;;;;;16.81;62.50;102727.50;4909814;28;119868;-72
2021/10/07 10:12:43;;;;;;;12.73;7.10;;;;;;;16.82;63.06;102731.97;4922846;28;118993;-72
2021/10/07 10:15:11;;;;;;;12.85;8.18;;;;;;;16.87;63.12;102726.41;4926101;28;124226;-72
2021/10/07 10:17:39;;;;;;;12.95;7.68;;;;;;;16.94;63.12;102725.25;4921926;28;122616;-72
2021/10/07 10:20:20;;;;;;;13.38;8.20;;;;;;;17.04;62.92;102728.38;4924280;28;119837;-72
2021/10/07 10:22:53;;;;;;;14.18;7.93;;;;;;;17.10;62.69;102733.47;4922123;28;118214;-72
2021/10/07 10:25:21;;;;;;;13.85;7.95;;;;;;;17.15;62.65;102734.16;4927774;28;124034;-72
2021/10/07 10:28:03;;;;;;;12.85;7.88;;;;;;;17.15;62.65;102736.84;4909267;28;124398;-72
2021/10/07 10:30:41;;;;;;;13.05;7.78;;;;;;;17.18;62.50;102736.72;4914575;28;119558;-74
2021/10/07 10:33:27;;;;;;;13.52;7.72;;;;;;;17.21;62.56;102741.94;4920128;28;119014;-74
2021/10/07 10:35:54;;;;;;;;;;;;;;;17.26;63.00;102739.94;4936505;28;123870;-73
2021/10/07 10:38:22;;;;;;;13.50;7.88;;;;;;;17.36;62.40;102740.41;4929920;28;124095;-72
2021/10/07 10:40:49;;;;;;;13.93;7.95;;;;;;;17.43;62.29;102741.03;4934656;28;120004;-72
2021/10/07 10:43:16;;;;;;;15.00;8.88;;;;;;;17.51;62.37;102739.72;4929759;28;120300;-72
2021/10/07 10:45:52;;;;;;;14.90;8.68;;;;;;;17.58;62.23;102745.69;4920455;28;123822;-72
2021/10/07 10:48:52;;;;;;;13.93;8.30;;;;;;;17.65;62.26;102739.13;4910169;28;124337;-72
2021/10/07 10:51:22;;;;;;;14.15;8.05;;;;;;;17.74;62.09;102745.00;4909491;28;119334;-71
2021/10/07 10:54:02;;;;;;;14.73;8.80;;;;;;;17.78;62.00;102746.59;4908924;28;117853;-73
2021/10/07 10:56:32;;;;;;;15.35;8.73;;;;;;;17.86;62.25;102744.50;4914002;28;124047;-72
2021/10/07 10:59:18;;;;;;;15.88;9.18;;;;;;;17.92;61.73;102744.22;4911230;28;124414;-72
2021/10/07 11:02:17;;;;;;;16.33;9.13;;;;;;;18.00;61.70;102763.50;4917525;28;119948;-72
2021/10/07 11:04:47;;;;;;;16.60;9.73;;;;;;;18.08;61.40;102750.63;4924206;28;119400;-72
2021/10/07 11:07:17;;;;;;;17.95;9.45;;;;;;;18.12;60.95;102751.34;4910712;28;123046;-72
2021/10/07 11:10:08;;;;;;;17.25;9.57;;;;;;;18.09;60.54;102763.06;4922620;28;125422;-72
2021/10/07 11:12:49;;;;;;;15.52;8.85;;;;;;;18.09;60.66;102763.06;4927380;28;119079;-72
2021/10/07 11:15:18;;;;;;;14.70;9.32;;;;;;;18.13;60.97;102762.94;4914136;28;119225;-72
2021/10/07 11:17:47;;;;;;;15.02;9.35;;;;;;;18.16;60.80;102762.78;4925303;28;123852;-72
2021/10/07 11:20:23;;;;;;;14.90;9.32;;;;;;;18.22;60.87;102763.38;4919084;28;122976;-72
2021/10/07 11:23:09;;;;;;;13.93;8.63;;;;;;;18.30;60.62;102771.06;4957568;22;119977;-71